sensor_id;sensor_type;location;lat;lon;timestamp;P1;durP1;ratioP1;P2;durP2;ratioP2
8929;SDS011;4500;49.074;9.110;2022-09-21T00:01:28;1.00;;;1.00;;
8929;SDS011;4500;49.074;9.110;2022-09-21T00:03:57;1.53;;;1.43;;
8929;SDS011;4500;49.074;9.110;2022-09-21T00:06:27;1.00;;;1.00;;
8929;SDS011;4500;49.074;9.110;2022-09-21T00:08:55;1.93;;;1.83;;
8929;SDS011;4500;49.074;9.110;2022-09-21T00:11:24;1.07;;;1.07;;
8929;SDS011;4500;49.074;9.110;2022-09-21T00:13:54;2.50;;;2.40;;
8929;SDS011;4500;49.074;9.110;2022-09-21T00:16:27;1.20;;;1.20;;
8929;SDS011;4500;49.074;9.110;2022-09-21T00:18:54;1.37;;;1.37;;
8929;SDS011;4500;49.074;9.110;2022-09-21T00:21:22;1.30;;;1.30;;
8929;SDS011;4500;49.074;9.110;2022-09-21T00:23:53;1.03;;;1.03;;
8929;SDS011;4500;49.074;9.110;2022-09-21T00:26:22;1.13;;;1.13;;
8929;SDS011;4500;49.074;9.110;2022-09-21T00:28:51;2.50;;;2.40;;
8929;SDS011;4500;49.074;9.110;2022-09-21T00:31:22;1.03;;;1.03;;
8929;SDS011;4500;49.074;9.110;2022-09-21T00:33:50;1.20;;;1.20;;
8929;SDS011;4500;49.074;9.110;2022-09-21T00:36:18;1.47;;;1.47;;
8929;SDS011;4500;49.074;9.110;2022-09-21T00:38:51;2.50;;;2.40;;
8929;SDS011;4500;49.074;9.110;2022-09-21T00:41:23;1.10;;;1.10;;
8929;SDS011;4500;49.074;9.110;2022-09-21T00:46:44;7.83;;;7.43;;
8929;SDS011;4500;49.074;9.110;2022-09-21T00:49:12;7.73;;;7.33;;
8929;SDS011;4500;49.074;9.110;2022-09-21T00:51:40;9.20;;;8.73;;
8929;SDS011;4500;49.074;9.110;2022-09-21T00:54:09;10.43;;;9.87;;
8929;SDS011;4500;49.074;9.110;2022-09-21T00:56:40;9.30;;;8.83;;
8929;SDS011;4500;49.074;9.110;2022-09-21T00:59:10;7.27;;;6.90;;
8929;SDS011;4500;49.074;9.110;2022-09-21T01:01:38;10.00;;;9.47;;
8929;SDS011;4500;49.074;9.110;2022-09-21T01:04:08;10.50;;;9.97;;
8929;SDS011;4500;49.074;9.110;2022-09-21T01:06:37;6.50;;;6.20;;
8929;SDS011;4500;49.074;9.110;2022-09-21T01:09:04;10.00;;;9.47;;
8929;SDS011;4500;49.074;9.110;2022-09-21T01:17:17;10.10;;;9.57;;
8929;SDS011;4500;49.074;9.110;2022-09-21T01:19:54;1.07;;;1.07;;
8929;SDS011;4500;49.074;9.110;2022-09-21T01:31:08;10.03;;;9.50;;
8929;SDS011;4500;49.074;9.110;2022-09-21T01:33:43;10.57;;;10.00;;
8929;SDS011;4500;49.074;9.110;2022-09-21T01:36:14;8.27;;;7.87;;
8929;SDS011;4500;49.074;9.110;2022-09-21T01:38:46;6.53;;;6.23;;
8929;SDS011;4500;49.074;9.110;2022-09-21T01:41:16;5.70;;;5.43;;
8929;SDS011;4500;49.074;9.110;2022-09-21T01:43:46;4.80;;;4.60;;
8929;SDS011;4500;49.074;9.110;2022-09-21T01:46:18;3.90;;;3.70;;
8929;SDS011;4500;49.074;9.110;2022-09-21T01:48:49;3.13;;;3.03;;
8929;SDS011;4500;49.074;9.110;2022-09-21T01:51:19;1.20;;;1.20;;
8929;SDS011;4500;49.074;9.110;2022-09-21T01:53:52;3.00;;;2.90;;
8929;SDS011;4500;49.074;9.110;2022-09-21T01:56:43;1.00;;;1.00;;
8929;SDS011;4500;49.074;9.110;2022-09-21T01:59:15;9.50;;;9.00;;
8929;SDS011;4500;49.074;9.110;2022-09-21T02:01:59;3.50;;;3.33;;
8929;SDS011;4500;49.074;9.110;2022-09-21T02:04:42;8.20;;;7.80;;
8929;SDS011;4500;49.074;9.110;2022-09-21T02:07:09;7.90;;;7.50;;
8929;SDS011;4500;49.074;9.110;2022-09-21T02:09:37;10.17;;;9.67;;
8929;SDS011;4500;49.074;9.110;2022-09-21T02:12:04;6.47;;;6.17;;
8929;SDS011;4500;49.074;9.110;2022-09-21T02:14:31;6.70;;;6.40;;
8929;SDS011;4500;49.074;9.110;2022-09-21T02:25:31;1.30;;;1.30;;
8929;SDS011;4500;49.074;9.110;2022-09-21T02:28:38;1.13;;;1.13;;
8929;SDS011;4500;49.074;9.110;2022-09-21T02:31:10;10.00;;;9.50;;
8929;SDS011;4500;49.074;9.110;2022-09-21T02:36:56;1.40;;;1.40;;
8929;SDS011;4500;49.074;9.110;2022-09-21T02:39:32;3.20;;;2.97;;
8929;SDS011;4500;49.074;9.110;2022-09-21T02:42:06;6.50;;;6.17;;
8929;SDS011;4500;49.074;9.110;2022-09-21T02:44:39;10.67;;;10.10;;
8929;SDS011;4500;49.074;9.110;2022-09-21T02:47:25;12.50;;;11.70;;
8929;SDS011;4500;49.074;9.110;2022-09-21T02:49:57;1.50;;;1.50;;
8929;SDS011;4500;49.074;9.110;2022-09-21T02:52:30;2.13;;;2.07;;
8929;SDS011;4500;49.074;9.110;2022-09-21T02:54:59;4.13;;;3.93;;
8929;SDS011;4500;49.074;9.110;2022-09-21T02:57:27;1.00;;;1.00;;
8929;SDS011;4500;49.074;9.110;2022-09-21T02:59:54;1.93;;;1.83;;
8929;SDS011;4500;49.074;9.110;2022-09-21T03:02:21;1.27;;;1.27;;
8929;SDS011;4500;49.074;9.110;2022-09-21T03:04:51;1.30;;;1.30;;
8929;SDS011;4500;49.074;9.110;2022-09-21T03:07:19;1.20;;;1.20;;
8929;SDS011;4500;49.074;9.110;2022-09-21T03:09:46;3.03;;;2.93;;
8929;SDS011;4500;49.074;9.110;2022-09-21T03:12:14;8.40;;;8.00;;
8929;SDS011;4500;49.074;9.110;2022-09-21T03:14:41;8.20;;;7.80;;
8929;SDS011;4500;49.074;9.110;2022-09-21T03:17:08;14.87;;;13.73;;
8929;SDS011;4500;49.074;9.110;2022-09-21T03:19:35;9.53;;;9.03;;
8929;SDS011;4500;49.074;9.110;2022-09-21T03:22:02;5.77;;;5.47;;
8929;SDS011;4500;49.074;9.110;2022-09-21T03:24:32;8.43;;;8.00;;
8929;SDS011;4500;49.074;9.110;2022-09-21T03:27:18;10.33;;;9.80;;
8929;SDS011;4500;49.074;9.110;2022-09-21T03:29:46;2.73;;;2.63;;
8929;SDS011;4500;49.074;9.110;2022-09-21T03:32:14;9.60;;;9.03;;
8929;SDS011;4500;49.074;9.110;2022-09-21T03:34:41;8.70;;;8.23;;
8929;SDS011;4500;49.074;9.110;2022-09-21T03:37:09;10.27;;;9.73;;
8929;SDS011;4500;49.074;9.110;2022-09-21T03:39:36;10.40;;;9.87;;
8929;SDS011;4500;49.074;9.110;2022-09-21T03:42:03;3.27;;;3.17;;
8929;SDS011;4500;49.074;9.110;2022-09-21T03:44:31;2.63;;;2.53;;
8929;SDS011;4500;49.074;9.110;2022-09-21T03:46:58;2.00;;;1.90;;
8929;SDS011;4500;49.074;9.110;2022-09-21T03:49:25;1.20;;;1.20;;
8929;SDS011;4500;49.074;9.110;2022-09-21T03:51:53;12.33;;;4.03;;
8929;SDS011;4500;49.074;9.110;2022-09-21T03:54:21;1.40;;;1.40;;
8929;SDS011;4500;49.074;9.110;2022-09-21T03:56:48;1.50;;;1.50;;
8929;SDS011;4500;49.074;9.110;2022-09-21T03:59:18;5.83;;;5.53;;
8929;SDS011;4500;49.074;9.110;2022-09-21T04:01:45;4.90;;;4.70;;
8929;SDS011;4500;49.074;9.110;2022-09-21T04:04:13;8.80;;;8.33;;
8929;SDS011;4500;49.074;9.110;2022-09-21T04:06:43;8.27;;;7.83;;
8929;SDS011;4500;49.074;9.110;2022-09-21T04:09:11;9.53;;;9.03;;
8929;SDS011;4500;49.074;9.110;2022-09-21T04:11:38;10.70;;;10.13;;
8929;SDS011;4500;49.074;9.110;2022-09-21T04:14:06;11.10;;;10.53;;
8929;SDS011;4500;49.074;9.110;2022-09-21T04:16:33;3.10;;;3.00;;
8929;SDS011;4500;49.074;9.110;2022-09-21T04:19:00;3.87;;;3.70;;
8929;SDS011;4500;49.074;9.110;2022-09-21T04:21:28;1.43;;;1.43;;
8929;SDS011;4500;49.074;9.110;2022-09-21T04:23:55;2.00;;;1.90;;
8929;SDS011;4500;49.074;9.110;2022-09-21T04:26:26;1.00;;;1.00;;
8929;SDS011;4500;49.074;9.110;2022-09-21T04:28:58;2.00;;;1.90;;
8929;SDS011;4500;49.074;9.110;2022-09-21T04:31:26;1.40;;;1.40;;
8929;SDS011;4500;49.074;9.110;2022-09-21T04:33:54;1.80;;;1.70;;
8929;SDS011;4500;49.074;9.110;2022-09-21T04:36:23;1.20;;;1.20;;
8929;SDS011;4500;49.074;9.110;2022-09-21T04:38:51;13.07;;;4.27;;
8929;SDS011;4500;49.074;9.110;2022-09-21T04:41:18;1.90;;;1.90;;
8929;SDS011;4500;49.074;9.110;2022-09-21T04:43:46;4.80;;;4.60;;
8929;SDS011;4500;49.074;9.110;2022-09-21T04:46:17;7.73;;;7.33;;
8929;SDS011;4500;49.074;9.110;2022-09-21T04:48:46;4.80;;;4.60;;
8929;SDS011;4500;49.074;9.110;2022-09-21T04:51:14;9.23;;;8.73;;
8929;SDS011;4500;49.074;9.110;2022-09-21T04:53:42;9.00;;;8.53;;
8929;SDS011;4500;49.074;9.110;2022-09-21T04:56:11;10.73;;;10.17;;
8929;SDS011;4500;49.074;9.110;2022-09-21T04:58:40;10.20;;;9.67;;
8929;SDS011;4500;49.074;9.110;2022-09-21T05:01:08;10.83;;;10.27;;
8929;SDS011;4500;49.074;9.110;2022-09-21T05:03:35;9.63;;;9.13;;
8929;SDS011;4500;49.074;9.110;2022-09-21T05:06:03;5.90;;;5.60;;
8929;SDS011;4500;49.074;9.110;2022-09-21T05:08:30;2.73;;;2.63;;
8929;SDS011;4500;49.074;9.110;2022-09-21T05:11:16;4.00;;;3.80;;
8929;SDS011;4500;49.074;9.110;2022-09-21T05:13:46;3.80;;;3.63;;
8929;SDS011;4500;49.074;9.110;2022-09-21T05:16:14;8.70;;;8.23;;
8929;SDS011;4500;49.074;9.110;2022-09-21T05:18:42;9.97;;;9.43;;
8929;SDS011;4500;49.074;9.110;2022-09-21T05:21:11;10.88;;;10.30;;
8929;SDS011;4500;49.074;9.110;2022-09-21T05:23:38;11.13;;;10.53;;
8929;SDS011;4500;49.074;9.110;2022-09-21T05:26:06;11.40;;;10.77;;
8929;SDS011;4500;49.074;9.110;2022-09-21T05:28:34;10.20;;;9.67;;
8929;SDS011;4500;49.074;9.110;2022-09-21T05:34:02;2.07;;;1.97;;
8929;SDS011;4500;49.074;9.110;2022-09-21T05:39:18;2.13;;;2.03;;
8929;SDS011;4500;49.074;9.110;2022-09-21T05:41:45;7.17;;;6.83;;
8929;SDS011;4500;49.074;9.110;2022-09-21T05:44:13;8.80;;;8.33;;
8929;SDS011;4500;49.074;9.110;2022-09-21T05:47:03;9.97;;;9.43;;
8929;SDS011;4500;49.074;9.110;2022-09-21T05:49:39;2.87;;;2.73;;
8929;SDS011;4500;49.074;9.110;2022-09-21T05:52:18;5.80;;;5.50;;
8929;SDS011;4500;49.074;9.110;2022-09-21T05:57:32;1.20;;;1.20;;
8929;SDS011;4500;49.074;9.110;2022-09-21T06:05:58;1.67;;;1.67;;
8929;SDS011;4500;49.074;9.110;2022-09-21T06:08:25;1.50;;;1.50;;
8929;SDS011;4500;49.074;9.110;2022-09-21T06:10:53;3.03;;;2.93;;
8929;SDS011;4500;49.074;9.110;2022-09-21T06:13:23;1.40;;;1.40;;
8929;SDS011;4500;49.074;9.110;2022-09-21T06:15:50;3.43;;;3.30;;
8929;SDS011;4500;49.074;9.110;2022-09-21T06:18:18;2.50;;;2.40;;
8929;SDS011;4500;49.074;9.110;2022-09-21T06:20:45;7.33;;;6.97;;
8929;SDS011;4500;49.074;9.110;2022-09-21T06:23:13;8.57;;;8.13;;
8929;SDS011;4500;49.074;9.110;2022-09-21T06:25:40;8.07;;;7.67;;
8929;SDS011;4500;49.074;9.110;2022-09-21T06:28:09;10.40;;;9.87;;
8929;SDS011;4500;49.074;9.110;2022-09-21T06:30:37;10.30;;;9.77;;
8929;SDS011;4500;49.074;9.110;2022-09-21T06:33:07;10.77;;;10.20;;
8929;SDS011;4500;49.074;9.110;2022-09-21T06:35:35;10.63;;;10.07;;
8929;SDS011;4500;49.074;9.110;2022-09-21T06:38:04;6.80;;;6.50;;
8929;SDS011;4500;49.074;9.110;2022-09-21T06:40:33;6.00;;;5.70;;
8929;SDS011;4500;49.074;9.110;2022-09-21T06:43:03;8.10;;;7.70;;
8929;SDS011;4500;49.074;9.110;2022-09-21T06:45:30;2.53;;;2.47;;
8929;SDS011;4500;49.074;9.110;2022-09-21T06:47:57;1.50;;;1.50;;
8929;SDS011;4500;49.074;9.110;2022-09-21T06:50:25;1.20;;;1.20;;
8929;SDS011;4500;49.074;9.110;2022-09-21T06:52:53;2.83;;;2.73;;
8929;SDS011;4500;49.074;9.110;2022-09-21T06:55:20;2.37;;;2.27;;
8929;SDS011;4500;49.074;9.110;2022-09-21T06:57:47;3.23;;;3.13;;
8929;SDS011;4500;49.074;9.110;2022-09-21T07:00:16;3.00;;;2.90;;
8929;SDS011;4500;49.074;9.110;2022-09-21T07:02:44;8.47;;;8.03;;
8929;SDS011;4500;49.074;9.110;2022-09-21T07:05:11;10.37;;;9.83;;
8929;SDS011;4500;49.074;9.110;2022-09-21T07:07:38;9.90;;;9.40;;
8929;SDS011;4500;49.074;9.110;2022-09-21T07:10:06;11.13;;;10.57;;
8929;SDS011;4500;49.074;9.110;2022-09-21T07:12:43;9.67;;;9.03;;
8929;SDS011;4500;49.074;9.110;2022-09-21T07:15:10;10.87;;;10.30;;
8929;SDS011;4500;49.074;9.110;2022-09-21T07:17:38;10.77;;;10.20;;
8929;SDS011;4500;49.074;9.110;2022-09-21T07:20:06;11.27;;;10.70;;
8929;SDS011;4500;49.074;9.110;2022-09-21T07:22:34;3.80;;;3.60;;
8929;SDS011;4500;49.074;9.110;2022-09-21T07:25:04;3.77;;;3.57;;
8929;SDS011;4500;49.074;9.110;2022-09-21T07:27:31;3.10;;;2.97;;
8929;SDS011;4500;49.074;9.110;2022-09-21T07:29:59;3.83;;;3.63;;
8929;SDS011;4500;49.074;9.110;2022-09-21T07:32:26;1.97;;;1.90;;
8929;SDS011;4500;49.074;9.110;2022-09-21T07:34:53;3.00;;;2.90;;
8929;SDS011;4500;49.074;9.110;2022-09-21T07:37:24;1.10;;;1.10;;
8929;SDS011;4500;49.074;9.110;2022-09-21T07:39:53;2.03;;;1.93;;
8929;SDS011;4500;49.074;9.110;2022-09-21T07:42:20;0.90;;;0.90;;
8929;SDS011;4500;49.074;9.110;2022-09-21T07:44:48;2.13;;;2.03;;
8929;SDS011;4500;49.074;9.110;2022-09-21T07:47:16;3.73;;;3.57;;
8929;SDS011;4500;49.074;9.110;2022-09-21T07:49:44;7.03;;;6.70;;
8929;SDS011;4500;49.074;9.110;2022-09-21T07:52:12;8.53;;;8.10;;
8929;SDS011;4500;49.074;9.110;2022-09-21T07:54:40;6.83;;;6.50;;
8929;SDS011;4500;49.074;9.110;2022-09-21T07:57:08;8.17;;;7.73;;
8929;SDS011;4500;49.074;9.110;2022-09-21T07:59:54;2.60;;;2.50;;
8929;SDS011;4500;49.074;9.110;2022-09-21T08:02:24;1.30;;;1.30;;
8929;SDS011;4500;49.074;9.110;2022-09-21T08:04:52;3.53;;;3.33;;
8929;SDS011;4500;49.074;9.110;2022-09-21T08:07:19;1.17;;;1.17;;
8929;SDS011;4500;49.074;9.110;2022-09-21T08:09:46;3.87;;;3.67;;
8929;SDS011;4500;49.074;9.110;2022-09-21T08:12:16;4.60;;;4.40;;
8929;SDS011;4500;49.074;9.110;2022-09-21T08:14:44;7.37;;;7.00;;
8929;SDS011;4500;49.074;9.110;2022-09-21T08:17:12;7.23;;;6.87;;
8929;SDS011;4500;49.074;9.110;2022-09-21T08:19:40;6.40;;;6.10;;
8929;SDS011;4500;49.074;9.110;2022-09-21T08:22:07;8.23;;;7.83;;
8929;SDS011;4500;49.074;9.110;2022-09-21T08:24:34;6.10;;;5.80;;
8929;SDS011;4500;49.074;9.110;2022-09-21T08:27:03;5.47;;;5.23;;
8929;SDS011;4500;49.074;9.110;2022-09-21T08:29:30;2.47;;;2.37;;
8929;SDS011;4500;49.074;9.110;2022-09-21T08:31:57;1.80;;;1.70;;
8929;SDS011;4500;49.074;9.110;2022-09-21T08:34:27;2.23;;;2.10;;
8929;SDS011;4500;49.074;9.110;2022-09-21T08:36:55;1.33;;;1.33;;
8929;SDS011;4500;49.074;9.110;2022-09-21T08:39:22;1.00;;;1.00;;
8929;SDS011;4500;49.074;9.110;2022-09-21T08:42:09;1.10;;;1.10;;
8929;SDS011;4500;49.074;9.110;2022-09-21T08:44:47;7.33;;;6.93;;
8929;SDS011;4500;49.074;9.110;2022-09-21T08:47:22;0.93;;;0.93;;
8929;SDS011;4500;49.074;9.110;2022-09-21T08:50:02;3.23;;;3.10;;
8929;SDS011;4500;49.074;9.110;2022-09-21T08:52:30;2.17;;;2.07;;
8929;SDS011;4500;49.074;9.110;2022-09-21T08:55:02;1.50;;;1.40;;
8929;SDS011;4500;49.074;9.110;2022-09-21T08:57:33;5.23;;;4.97;;
8929;SDS011;4500;49.074;9.110;2022-09-21T09:00:00;2.97;;;2.83;;
8929;SDS011;4500;49.074;9.110;2022-09-21T09:02:40;1.50;;;1.47;;
8929;SDS011;4500;49.074;9.110;2022-09-21T09:05:20;7.20;;;6.83;;
8929;SDS011;4500;49.074;9.110;2022-09-21T09:10:51;6.33;;;6.03;;
8929;SDS011;4500;49.074;9.110;2022-09-21T09:22:03;2.50;;;2.40;;
8929;SDS011;4500;49.074;9.110;2022-09-21T09:24:48;6.47;;;6.17;;
8929;SDS011;4500;49.074;9.110;2022-09-21T09:27:18;3.30;;;3.20;;
8929;SDS011;4500;49.074;9.110;2022-09-21T09:37:56;2.80;;;2.70;;
8929;SDS011;4500;49.074;9.110;2022-09-21T09:43:37;2.03;;;1.93;;
8929;SDS011;4500;49.074;9.110;2022-09-21T09:52:24;0.83;;;0.83;;
8929;SDS011;4500;49.074;9.110;2022-09-21T09:54:54;1.27;;;1.27;;
8929;SDS011;4500;49.074;9.110;2022-09-21T09:57:29;0.90;;;0.90;;
8929;SDS011;4500;49.074;9.110;2022-09-21T09:59:58;1.60;;;1.50;;
8929;SDS011;4500;49.074;9.110;2022-09-21T10:02:29;2.37;;;2.27;;
8929;SDS011;4500;49.074;9.110;2022-09-21T10:05:04;1.93;;;1.83;;
8929;SDS011;4500;49.074;9.110;2022-09-21T10:07:37;4.10;;;3.90;;
8929;SDS011;4500;49.074;9.110;2022-09-21T10:18:20;1.83;;;1.73;;
8929;SDS011;4500;49.074;9.110;2022-09-21T10:21:07;6.17;;;5.87;;
8929;SDS011;4500;49.074;9.110;2022-09-21T10:23:39;5.70;;;5.40;;
8929;SDS011;4500;49.074;9.110;2022-09-21T10:26:07;6.83;;;6.53;;
8929;SDS011;4500;49.074;9.110;2022-09-21T10:28:35;5.17;;;4.93;;
8929;SDS011;4500;49.074;9.110;2022-09-21T10:31:24;5.13;;;4.93;;
8929;SDS011;4500;49.074;9.110;2022-09-21T10:40:00;1.23;;;1.23;;
8929;SDS011;4500;49.074;9.110;2022-09-21T10:42:33;2.43;;;2.37;;
8929;SDS011;4500;49.074;9.110;2022-09-21T10:45:04;5.13;;;4.93;;
8929;SDS011;4500;49.074;9.110;2022-09-21T10:50:04;4.33;;;4.13;;
8929;SDS011;4500;49.074;9.110;2022-09-21T10:52:57;1.17;;;1.17;;
8929;SDS011;4500;49.074;9.110;2022-09-21T10:55:29;0.73;;;0.73;;
8929;SDS011;4500;49.074;9.110;2022-09-21T10:57:57;1.30;;;1.30;;
8929;SDS011;4500;49.074;9.110;2022-09-21T11:02:57;1.30;;;1.30;;
8929;SDS011;4500;49.074;9.110;2022-09-21T11:05:28;0.90;;;0.90;;
8929;SDS011;4500;49.074;9.110;2022-09-21T11:16:50;4.87;;;4.67;;
8929;SDS011;4500;49.074;9.110;2022-09-21T11:21:51;5.60;;;5.37;;
8929;SDS011;4500;49.074;9.110;2022-09-21T11:24:27;0.80;;;0.80;;
8929;SDS011;4500;49.074;9.110;2022-09-21T11:30:16;1.10;;;1.10;;
8929;SDS011;4500;49.074;9.110;2022-09-21T11:32:54;4.37;;;4.17;;
8929;SDS011;4500;49.074;9.110;2022-09-21T11:38:10;5.10;;;4.90;;
8929;SDS011;4500;49.074;9.110;2022-09-21T11:41:01;7.23;;;6.90;;
8929;SDS011;4500;49.074;9.110;2022-09-21T11:43:53;4.30;;;4.10;;
8929;SDS011;4500;49.074;9.110;2022-09-21T11:55:14;0.70;;;0.70;;
8929;SDS011;4500;49.074;9.110;2022-09-21T12:04:14;2.23;;;2.17;;
8929;SDS011;4500;49.074;9.110;2022-09-21T12:07:37;0.90;;;0.90;;
8929;SDS011;4500;49.074;9.110;2022-09-21T12:10:04;4.00;;;3.80;;
8929;SDS011;4500;49.074;9.110;2022-09-21T12:18:07;0.80;;;0.80;;
8929;SDS011;4500;49.074;9.110;2022-09-21T12:24:05;1.57;;;1.57;;
8929;SDS011;4500;49.074;9.110;2022-09-21T12:27:12;4.80;;;4.60;;
8929;SDS011;4500;49.074;9.110;2022-09-21T12:29:52;0.97;;;0.97;;
8929;SDS011;4500;49.074;9.110;2022-09-21T12:32:38;0.80;;;0.80;;
8929;SDS011;4500;49.074;9.110;2022-09-21T12:36:06;0.80;;;0.80;;
8929;SDS011;4500;49.074;9.110;2022-09-21T12:38:20;5.03;;;4.83;;
8929;SDS011;4500;49.074;9.110;2022-09-21T12:43:43;5.63;;;5.37;;
8929;SDS011;4500;49.074;9.110;2022-09-21T12:49:07;4.13;;;3.93;;
8929;SDS011;4500;49.074;9.110;2022-09-21T12:51:47;4.60;;;4.40;;
8929;SDS011;4500;49.074;9.110;2022-09-21T12:54:26;2.50;;;2.40;;
8929;SDS011;4500;49.074;9.110;2022-09-21T13:00:38;3.10;;;3.00;;
8929;SDS011;4500;49.074;9.110;2022-09-21T13:06:03;4.30;;;4.10;;
8929;SDS011;4500;49.074;9.110;2022-09-21T13:08:50;1.63;;;1.53;;
8929;SDS011;4500;49.074;9.110;2022-09-21T13:11:19;1.17;;;1.17;;
8929;SDS011;4500;49.074;9.110;2022-09-21T13:13:59;2.23;;;2.13;;
8929;SDS011;4500;49.074;9.110;2022-09-21T13:16:29;0.80;;;0.80;;
8929;SDS011;4500;49.074;9.110;2022-09-21T13:19:04;2.00;;;1.93;;
8929;SDS011;4500;49.074;9.110;2022-09-21T13:21:44;5.03;;;4.83;;
8929;SDS011;4500;49.074;9.110;2022-09-21T13:24:25;4.40;;;4.20;;
8929;SDS011;4500;49.074;9.110;2022-09-21T13:26:55;1.10;;;1.10;;
8929;SDS011;4500;49.074;9.110;2022-09-21T13:29:29;1.00;;;1.00;;
8929;SDS011;4500;49.074;9.110;2022-09-21T13:32:20;1.13;;;1.13;;
8929;SDS011;4500;49.074;9.110;2022-09-21T13:34:47;2.37;;;2.27;;
8929;SDS011;4500;49.074;9.110;2022-09-21T13:47:42;5.77;;;5.50;;
8929;SDS011;4500;49.074;9.110;2022-09-21T13:50:24;5.13;;;4.93;;
8929;SDS011;4500;49.074;9.110;2022-09-21T13:53:00;1.67;;;1.60;;
8929;SDS011;4500;49.074;9.110;2022-09-21T13:55:36;2.43;;;2.33;;
8929;SDS011;4500;49.074;9.110;2022-09-21T13:58:17;5.60;;;5.33;;
8929;SDS011;4500;49.074;9.110;2022-09-21T14:01:02;2.43;;;2.37;;
8929;SDS011;4500;49.074;9.110;2022-09-21T14:03:51;5.30;;;5.10;;
8929;SDS011;4500;49.074;9.110;2022-09-21T14:06:34;0.80;;;0.80;;
8929;SDS011;4500;49.074;9.110;2022-09-21T14:09:16;5.00;;;4.80;;
8929;SDS011;4500;49.074;9.110;2022-09-21T14:12:07;5.10;;;4.90;;
8929;SDS011;4500;49.074;9.110;2022-09-21T14:14:42;5.43;;;5.20;;
8929;SDS011;4500;49.074;9.110;2022-09-21T14:20:04;4.07;;;3.87;;
8929;SDS011;4500;49.074;9.110;2022-09-21T14:28:39;5.37;;;5.13;;
8929;SDS011;4500;49.074;9.110;2022-09-21T14:31:25;7.27;;;6.93;;
8929;SDS011;4500;49.074;9.110;2022-09-21T14:33:55;1.30;;;1.30;;
8929;SDS011;4500;49.074;9.110;2022-09-21T14:36:29;1.00;;;1.00;;
8929;SDS011;4500;49.074;9.110;2022-09-21T14:39:03;4.50;;;4.30;;
8929;SDS011;4500;49.074;9.110;2022-09-21T14:41:36;4.03;;;3.83;;
8929;SDS011;4500;49.074;9.110;2022-09-21T14:44:13;4.83;;;4.63;;
8929;SDS011;4500;49.074;9.110;2022-09-21T14:54:58;5.07;;;4.87;;
8929;SDS011;4500;49.074;9.110;2022-09-21T14:57:49;3.63;;;3.50;;
8929;SDS011;4500;49.074;9.110;2022-09-21T15:00:42;0.90;;;0.90;;
8929;SDS011;4500;49.074;9.110;2022-09-21T15:06:33;0.80;;;0.80;;
8929;SDS011;4500;49.074;9.110;2022-09-21T15:09:36;0.73;;;0.73;;
8929;SDS011;4500;49.074;9.110;2022-09-21T15:12:27;0.90;;;0.90;;
8929;SDS011;4500;49.074;9.110;2022-09-21T15:18:17;4.87;;;4.67;;
8929;SDS011;4500;49.074;9.110;2022-09-21T15:20:57;0.93;;;0.93;;
8929;SDS011;4500;49.074;9.110;2022-09-21T15:23:28;0.83;;;0.83;;
8929;SDS011;4500;49.074;9.110;2022-09-21T15:26:04;2.60;;;2.47;;
8929;SDS011;4500;49.074;9.110;2022-09-21T15:28:39;2.50;;;2.40;;
8929;SDS011;4500;49.074;9.110;2022-09-21T15:31:33;1.53;;;1.50;;
8929;SDS011;4500;49.074;9.110;2022-09-21T15:34:04;2.03;;;1.97;;
8929;SDS011;4500;49.074;9.110;2022-09-21T15:36:37;5.27;;;4.97;;
8929;SDS011;4500;49.074;9.110;2022-09-21T15:42:14;4.87;;;4.67;;
8929;SDS011;4500;49.074;9.110;2022-09-21T15:44:46;4.60;;;4.40;;
8929;SDS011;4500;49.074;9.110;2022-09-21T15:47:15;4.80;;;4.60;;
8929;SDS011;4500;49.074;9.110;2022-09-21T15:49:45;4.80;;;4.60;;
8929;SDS011;4500;49.074;9.110;2022-09-21T15:54:52;0.93;;;0.93;;
8929;SDS011;4500;49.074;9.110;2022-09-21T15:57:32;1.00;;;1.00;;
8929;SDS011;4500;49.074;9.110;2022-09-21T16:02:55;2.83;;;2.73;;
8929;SDS011;4500;49.074;9.110;2022-09-21T16:05:24;1.17;;;1.17;;
8929;SDS011;4500;49.074;9.110;2022-09-21T16:08:03;0.90;;;0.90;;
8929;SDS011;4500;49.074;9.110;2022-09-21T16:10:41;4.93;;;4.73;;
8929;SDS011;4500;49.074;9.110;2022-09-21T16:16:00;1.30;;;1.30;;
8929;SDS011;4500;49.074;9.110;2022-09-21T16:18:47;0.90;;;0.90;;
8929;SDS011;4500;49.074;9.110;2022-09-21T16:21:20;3.50;;;3.40;;
8929;SDS011;4500;49.074;9.110;2022-09-21T16:23:56;1.17;;;1.17;;
8929;SDS011;4500;49.074;9.110;2022-09-21T16:26:36;3.23;;;3.13;;
8929;SDS011;4500;49.074;9.110;2022-09-21T16:29:18;3.07;;;2.97;;
8929;SDS011;4500;49.074;9.110;2022-09-21T16:31:48;1.40;;;1.40;;
8929;SDS011;4500;49.074;9.110;2022-09-21T16:34:18;3.40;;;3.30;;
8929;SDS011;4500;49.074;9.110;2022-09-21T16:36:48;2.97;;;2.87;;
8929;SDS011;4500;49.074;9.110;2022-09-21T16:39:19;3.13;;;3.03;;
8929;SDS011;4500;49.074;9.110;2022-09-21T16:41:52;2.03;;;1.93;;
8929;SDS011;4500;49.074;9.110;2022-09-21T16:44:22;0.90;;;0.90;;
8929;SDS011;4500;49.074;9.110;2022-09-21T16:46:52;0.87;;;0.87;;
8929;SDS011;4500;49.074;9.110;2022-09-21T16:49:22;1.03;;;1.03;;
8929;SDS011;4500;49.074;9.110;2022-09-21T16:51:55;1.47;;;1.37;;
8929;SDS011;4500;49.074;9.110;2022-09-21T16:54:24;1.00;;;1.00;;
8929;SDS011;4500;49.074;9.110;2022-09-21T16:56:54;1.67;;;1.57;;
8929;SDS011;4500;49.074;9.110;2022-09-21T16:59:26;1.00;;;1.00;;
8929;SDS011;4500;49.074;9.110;2022-09-21T17:01:55;1.20;;;1.20;;
8929;SDS011;4500;49.074;9.110;2022-09-21T17:04:25;0.70;;;0.70;;
8929;SDS011;4500;49.074;9.110;2022-09-21T17:06:54;2.30;;;2.20;;
8929;SDS011;4500;49.074;9.110;2022-09-21T17:09:22;0.87;;;0.87;;
8929;SDS011;4500;49.074;9.110;2022-09-21T17:11:55;1.27;;;1.27;;
8929;SDS011;4500;49.074;9.110;2022-09-21T17:14:27;0.87;;;0.87;;
8929;SDS011;4500;49.074;9.110;2022-09-21T17:16:58;1.10;;;1.10;;
8929;SDS011;4500;49.074;9.110;2022-09-21T17:19:26;0.70;;;0.70;;
8929;SDS011;4500;49.074;9.110;2022-09-21T17:21:53;2.20;;;2.10;;
8929;SDS011;4500;49.074;9.110;2022-09-21T17:24:20;1.00;;;1.00;;
8929;SDS011;4500;49.074;9.110;2022-09-21T17:27:08;6.03;;;5.73;;
8929;SDS011;4500;49.074;9.110;2022-09-21T17:29:35;4.67;;;4.47;;
8929;SDS011;4500;49.074;9.110;2022-09-21T17:32:08;4.30;;;4.10;;
8929;SDS011;4500;49.074;9.110;2022-09-21T17:34:36;5.73;;;5.47;;
8929;SDS011;4500;49.074;9.110;2022-09-21T17:37:03;5.17;;;4.93;;
8929;SDS011;4500;49.074;9.110;2022-09-21T17:39:30;2.70;;;2.60;;
8929;SDS011;4500;49.074;9.110;2022-09-21T17:42:00;1.23;;;1.23;;
8929;SDS011;4500;49.074;9.110;2022-09-21T17:44:39;1.63;;;1.60;;
8929;SDS011;4500;49.074;9.110;2022-09-21T17:47:27;1.00;;;1.00;;
8929;SDS011;4500;49.074;9.110;2022-09-21T17:49:58;1.23;;;1.23;;
8929;SDS011;4500;49.074;9.110;2022-09-21T17:52:38;6.60;;;6.30;;
8929;SDS011;4500;49.074;9.110;2022-09-21T17:55:31;2.00;;;1.93;;
8929;SDS011;4500;49.074;9.110;2022-09-21T18:03:25;0.80;;;0.80;;
8929;SDS011;4500;49.074;9.110;2022-09-21T18:05:55;1.40;;;1.40;;
8929;SDS011;4500;49.074;9.110;2022-09-21T18:08:26;1.20;;;1.20;;
8929;SDS011;4500;49.074;9.110;2022-09-21T18:16:50;6.20;;;5.90;;
8929;SDS011;4500;49.074;9.110;2022-09-21T18:25:25;1.27;;;1.27;;
8929;SDS011;4500;49.074;9.110;2022-09-21T18:27:57;1.67;;;1.57;;
8929;SDS011;4500;49.074;9.110;2022-09-21T18:30:28;1.10;;;1.10;;
8929;SDS011;4500;49.074;9.110;2022-09-21T18:36:11;4.30;;;4.10;;
8929;SDS011;4500;49.074;9.110;2022-09-21T18:39:07;4.87;;;4.67;;
8929;SDS011;4500;49.074;9.110;2022-09-21T18:48:02;6.60;;;6.30;;
8929;SDS011;4500;49.074;9.110;2022-09-21T18:50:35;4.23;;;4.03;;
8929;SDS011;4500;49.074;9.110;2022-09-21T18:53:16;6.47;;;6.17;;
8929;SDS011;4500;49.074;9.110;2022-09-21T18:55:59;1.67;;;1.57;;
8929;SDS011;4500;49.074;9.110;2022-09-21T18:58:26;0.90;;;0.90;;
8929;SDS011;4500;49.074;9.110;2022-09-21T19:00:55;1.40;;;1.40;;
8929;SDS011;4500;49.074;9.110;2022-09-21T19:03:23;0.83;;;0.83;;
8929;SDS011;4500;49.074;9.110;2022-09-21T19:11:15;6.47;;;6.17;;
8929;SDS011;4500;49.074;9.110;2022-09-21T19:20:33;1.57;;;1.50;;
8929;SDS011;4500;49.074;9.110;2022-09-21T19:26:17;1.23;;;1.23;;
8929;SDS011;4500;49.074;9.110;2022-09-21T19:29:13;8.70;;;8.23;;
8929;SDS011;4500;49.074;9.110;2022-09-21T19:31:44;6.87;;;6.53;;
8929;SDS011;4500;49.074;9.110;2022-09-21T19:34:15;6.77;;;6.43;;
8929;SDS011;4500;49.074;9.110;2022-09-21T19:36:43;7.20;;;6.83;;
8929;SDS011;4500;49.074;9.110;2022-09-21T19:39:13;6.83;;;6.50;;